createdAt,value
2018-08-18T00:01:47.551Z,99.90
2018-08-18T00:04:25.893Z,99.90
2018-08-18T00:06:58.039Z,99.90
2018-08-18T00:09:33.719Z,99.90
2018-08-18T00:12:01.968Z,99.90
2018-08-18T00:14:33.149Z,99.90
2018-08-18T00:17:12.934Z,99.90
2018-08-18T00:19:40.991Z,99.90
2018-08-18T00:22:14.162Z,99.90
2018-08-18T00:24:50.782Z,99.90
2018-08-18T00:27:22.331Z,99.90
2018-08-18T00:29:59.877Z,99.90
2018-08-18T00:32:39.616Z,99.90
2018-08-18T00:35:16.110Z,99.90
2018-08-18T00:37:44.200Z,99.90
2018-08-18T00:40:17.189Z,99.90
2018-08-18T00:42:45.742Z,99.90
2018-08-18T00:45:13.972Z,99.90
2018-08-18T00:47:42.107Z,99.90
2018-08-18T00:50:17.168Z,99.90
2018-08-18T00:52:51.828Z,99.90
2018-08-18T00:55:24.354Z,99.90
2018-08-18T00:57:55.252Z,99.90
2018-08-18T01:00:23.478Z,99.90
2018-08-18T01:02:58.560Z,99.90
2018-08-18T01:05:30.939Z,99.90
2018-08-18T01:08:01.075Z,99.90
2018-08-18T01:10:29.384Z,99.90
2018-08-18T01:13:03.716Z,99.90
2018-08-18T01:15:34.743Z,99.90
2018-08-18T01:18:09.782Z,99.90
2018-08-18T01:20:42.676Z,99.90
2018-08-18T01:23:12.713Z,99.90
2018-08-18T01:25:52.475Z,99.90
2018-08-18T01:28:20.575Z,99.90
2018-08-18T01:31:02.996Z,99.90
2018-08-18T01:33:39.525Z,99.90
2018-08-18T01:36:07.701Z,99.90
2018-08-18T01:41:33.120Z,99.90
2018-08-18T01:44:18.841Z,99.90
2018-08-18T01:46:54.848Z,99.90
2018-08-18T01:49:38.012Z,99.90
2018-08-18T01:52:15.634Z,99.90
2018-08-18T01:54:51.751Z,99.90
2018-08-18T01:57:28.010Z,99.90
2018-08-18T02:00:03.722Z,99.90
2018-08-18T02:02:31.966Z,99.90
2018-08-18T02:05:08.323Z,99.90
2018-08-18T02:07:44.401Z,99.90
2018-08-18T02:10:18.037Z,99.90
2018-08-18T02:13:11.754Z,99.90
2018-08-18T02:15:39.855Z,99.90
2018-08-18T02:18:16.514Z,99.90
2018-08-18T02:20:44.671Z,99.90
2018-08-18T02:23:16.298Z,99.90
2018-08-18T02:25:53.775Z,99.90
2018-08-18T02:28:32.516Z,99.90
2018-08-18T02:31:00.636Z,99.90
2018-08-18T02:33:34.820Z,99.90
2018-08-18T02:36:06.999Z,99.90
2018-08-18T02:38:36.136Z,99.90
2018-08-18T02:41:08.486Z,99.90
2018-08-18T02:43:45.236Z,99.90
2018-08-18T02:46:33.755Z,99.90
2018-08-18T02:49:07.020Z,99.90
2018-08-18T02:51:35.463Z,99.90
2018-08-18T02:54:03.671Z,99.90
2018-08-18T02:56:42.559Z,99.90
2018-08-18T02:59:11.719Z,99.90
2018-08-18T03:01:45.160Z,99.90
2018-08-18T03:04:17.211Z,99.90
2018-08-18T03:06:50.177Z,99.90
2018-08-18T03:09:18.302Z,99.90
2018-08-18T03:11:51.239Z,99.90
2018-08-18T03:14:19.447Z,99.90
2018-08-18T03:16:52.727Z,99.90
2018-08-18T03:19:27.454Z,99.90
2018-08-18T03:21:55.539Z,99.90
2018-08-18T03:24:26.347Z,99.90
2018-08-18T03:26:58.091Z,99.90
2018-08-18T03:29:28.174Z,99.90
2018-08-18T03:32:02.930Z,99.90
2018-08-18T03:34:31.039Z,99.90
2018-08-18T03:37:03.939Z,99.90
2018-08-18T03:39:36.292Z,99.90
2018-08-18T03:42:04.671Z,99.90
2018-08-18T03:44:44.527Z,99.90
2018-08-18T03:47:15.014Z,99.90
2018-08-18T03:52:28.125Z,99.90
2018-08-18T03:55:08.290Z,99.90
2018-08-18T03:57:48.869Z,99.90
2018-08-18T04:00:20.664Z,99.90
2018-08-18T04:02:48.752Z,99.90
2018-08-18T04:05:19.712Z,99.90
2018-08-18T04:07:48.268Z,99.90
2018-08-18T04:10:17.995Z,99.90
2018-08-18T04:12:46.395Z,99.90
2018-08-18T04:15:16.702Z,99.90
2018-08-18T04:17:44.789Z,99.90
2018-08-18T04:20:17.889Z,99.90
2018-08-18T04:22:50.306Z,99.90
2018-08-18T04:25:18.682Z,99.90
2018-08-18T04:27:50.730Z,99.90
2018-08-18T04:30:21.917Z,99.90
2018-08-18T04:32:54.957Z,99.90
2018-08-18T04:35:27.091Z,99.90
2018-08-18T04:38:03.260Z,99.90
2018-08-18T04:40:37.528Z,99.90
2018-08-18T04:43:05.699Z,99.90
2018-08-18T04:45:40.100Z,99.90
2018-08-18T04:48:11.309Z,99.90
2018-08-18T04:50:45.881Z,99.90
2018-08-18T04:53:18.307Z,99.90
2018-08-18T04:55:55.845Z,99.90
2018-08-18T04:58:28.845Z,99.90
2018-08-18T05:00:59.248Z,99.90
2018-08-18T05:03:30.417Z,99.90
2018-08-18T05:05:58.484Z,99.90
2018-08-18T05:08:27.440Z,99.90
2018-08-18T05:10:55.619Z,99.90
2018-08-18T05:13:30.203Z,99.90
2018-08-18T05:16:10.637Z,99.90
2018-08-18T05:18:41.666Z,99.90
2018-08-18T05:21:15.456Z,99.90
2018-08-18T05:23:50.503Z,99.90
2018-08-18T05:26:31.203Z,99.90
2018-08-18T05:29:04.214Z,99.90
2018-08-18T05:31:35.338Z,99.90
2018-08-18T05:34:09.674Z,99.90
2018-08-18T05:36:46.264Z,99.90
2018-08-18T05:39:14.481Z,99.90
2018-08-18T05:41:49.120Z,99.90
2018-08-18T05:44:21.335Z,99.90
2018-08-18T05:46:52.349Z,99.90
2018-08-18T05:49:22.802Z,99.90
2018-08-18T05:51:53.219Z,99.90
2018-08-18T05:54:27.271Z,99.90
2018-08-18T05:57:02.713Z,99.90
2018-08-18T05:59:35.343Z,99.90
2018-08-18T06:02:08.840Z,99.90
2018-08-18T06:04:36.987Z,99.90
2018-08-18T06:07:07.997Z,99.90
2018-08-18T06:09:36.146Z,99.90
2018-08-18T06:12:18.501Z,99.90
2018-08-18T06:14:53.369Z,99.90
2018-08-18T06:17:27.326Z,99.90
2018-08-18T06:22:35.570Z,99.90
2018-08-18T06:25:04.022Z,99.90
2018-08-18T06:27:32.155Z,99.90
2018-08-18T06:30:07.605Z,99.90
2018-08-18T06:32:42.136Z,99.90
2018-08-18T06:35:16.686Z,99.90
2018-08-18T06:37:52.244Z,99.90
2018-08-18T06:40:20.335Z,99.90
2018-08-18T06:42:54.663Z,99.90
2018-08-18T06:45:33.033Z,99.90
2018-08-18T06:48:18.904Z,99.90
2018-08-18T06:50:47.052Z,99.90
2018-08-18T06:55:59.755Z,99.90
2018-08-18T06:58:34.200Z,99.90
2018-08-18T07:01:14.889Z,99.90
2018-08-18T07:03:47.798Z,99.90
2018-08-18T07:06:17.187Z,99.90
2018-08-18T07:08:52.847Z,99.90
2018-08-18T07:11:32.611Z,99.90
2018-08-18T07:14:03.285Z,99.90
2018-08-18T07:16:31.411Z,99.90
2018-08-18T07:19:06.739Z,99.90
2018-08-18T07:21:39.036Z,99.90
2018-08-18T07:24:09.278Z,99.90
2018-08-18T07:26:37.388Z,99.90
2018-08-18T07:29:06.509Z,99.90
2018-08-18T07:31:34.471Z,99.90
2018-08-18T07:34:09.791Z,99.90
2018-08-18T07:36:40.737Z,99.90
2018-08-18T07:39:08.891Z,99.90
2018-08-18T07:41:48.735Z,99.90
2018-08-18T07:44:17.052Z,99.90
2018-08-18T07:46:45.205Z,99.90
2018-08-18T07:49:21.240Z,99.90
2018-08-18T07:51:51.806Z,99.90
2018-08-18T07:54:36.872Z,99.90
2018-08-18T07:57:04.938Z,99.90
2018-08-18T07:59:36.088Z,99.90
2018-08-18T08:02:07.748Z,99.90
2018-08-18T08:04:38.639Z,99.90
2018-08-18T08:07:06.746Z,99.90
2018-08-18T08:09:39.868Z,99.90
2018-08-18T08:12:08.127Z,99.90
2018-08-18T08:14:36.319Z,99.90
2018-08-18T08:17:13.894Z,99.90
2018-08-18T08:19:46.152Z,99.90
2018-08-18T08:22:17.047Z,99.90
2018-08-18T08:24:45.269Z,99.90
2018-08-18T08:27:16.524Z,99.90
2018-08-18T08:29:49.701Z,99.90
2018-08-18T08:32:19.988Z,99.90
2018-08-18T08:34:48.286Z,99.90
2018-08-18T08:37:19.167Z,99.90
2018-08-18T08:39:47.650Z,99.60
2018-08-18T08:42:18.126Z,99.00
2018-08-18T08:44:48.623Z,98.90
2018-08-18T08:47:16.663Z,98.10
2018-08-18T08:49:48.208Z,97.80
2018-08-18T08:52:22.612Z,97.30
2018-08-18T08:54:53.170Z,96.70
2018-08-18T08:57:21.324Z,96.10
2018-08-18T08:59:58.943Z,94.90
2018-08-18T09:02:33.569Z,94.80
2018-08-18T09:05:01.653Z,94.10
2018-08-18T09:07:37.627Z,93.40
2018-08-18T09:10:11.830Z,93.00
2018-08-18T09:12:44.200Z,92.70
2018-08-18T09:15:13.490Z,92.10
2018-08-18T09:17:46.495Z,91.20
2018-08-18T09:20:23.803Z,90.20
2018-08-18T09:22:57.071Z,89.70
2018-08-18T09:25:26.789Z,87.10
2018-08-18T09:27:58.944Z,85.60
2018-08-18T09:33:14.175Z,84.60
2018-08-18T09:36:01.779Z,84.30
2018-08-18T09:38:34.144Z,83.80
2018-08-18T09:41:05.437Z,83.60
2018-08-18T09:43:33.744Z,83.50
2018-08-18T09:46:01.814Z,82.40
2018-08-18T09:48:37.056Z,80.70
2018-08-18T09:51:07.174Z,80.00
2018-08-18T09:53:35.325Z,79.70
2018-08-18T09:56:09.890Z,79.00
2018-08-18T09:58:44.271Z,78.50
2018-08-18T10:01:19.578Z,78.30
2018-08-18T10:03:54.943Z,77.20
2018-08-18T10:06:28.171Z,77.20
2018-08-18T10:08:59.387Z,76.90
2018-08-18T10:11:27.575Z,76.30
2018-08-18T10:14:05.813Z,74.90
2018-08-18T10:16:38.480Z,74.70
2018-08-18T10:19:11.529Z,74.20
2018-08-18T10:21:47.390Z,75.40
2018-08-18T10:24:18.321Z,75.30
2018-08-18T10:26:55.782Z,74.70
2018-08-18T10:29:32.661Z,73.50
2018-08-18T10:32:08.002Z,73.50
2018-08-18T10:34:44.750Z,72.40
2018-08-18T10:37:18.343Z,71.40
2018-08-18T10:39:46.480Z,71.30
2018-08-18T10:42:22.189Z,70.70
2018-08-18T10:44:57.942Z,71.20
2018-08-18T10:47:29.184Z,70.20
2018-08-18T10:50:09.076Z,69.60
2018-08-18T10:52:50.766Z,69.80
2018-08-18T10:55:19.257Z,68.80
2018-08-18T10:58:02.365Z,68.90
2018-08-18T11:00:32.249Z,68.70
2018-08-18T11:03:02.959Z,68.60
2018-08-18T11:05:31.691Z,69.60
2018-08-18T11:08:06.647Z,69.10
2018-08-18T11:10:38.532Z,68.40
2018-08-18T11:13:10.144Z,68.60
2018-08-18T11:15:38.428Z,68.40
2018-08-18T11:18:07.576Z,67.70
2018-08-18T11:20:36.034Z,67.50
2018-08-18T11:23:09.752Z,66.70
2018-08-18T11:25:52.614Z,67.00
2018-08-18T11:28:21.849Z,66.90
2018-08-18T11:30:51.961Z,67.20
2018-08-18T11:33:35.886Z,66.60
2018-08-18T11:36:05.934Z,66.20
2018-08-18T11:38:37.733Z,66.20
2018-08-18T11:41:12.084Z,65.90
2018-08-18T11:43:47.099Z,65.20
2018-08-18T11:46:15.393Z,65.40
2018-08-18T11:48:43.497Z,65.80
2018-08-18T11:51:18.987Z,65.40
2018-08-18T11:53:59.277Z,64.80
2018-08-18T11:56:32.258Z,65.80
2018-08-18T11:59:12.407Z,65.10
2018-08-18T12:01:48.306Z,64.90
2018-08-18T12:04:21.361Z,64.50
2018-08-18T12:06:57.097Z,64.80
2018-08-18T12:09:30.463Z,64.10
2018-08-18T12:11:58.801Z,64.90
2018-08-18T12:14:26.867Z,64.60
2018-08-18T12:17:04.541Z,64.50
2018-08-18T12:19:36.840Z,64.10
2018-08-18T12:22:12.244Z,64.70
2018-08-18T12:24:52.002Z,64.80
2018-08-18T12:27:20.098Z,64.50
2018-08-18T12:29:52.363Z,64.10
2018-08-18T12:32:27.445Z,64.40
2018-08-18T12:35:00.817Z,64.00
2018-08-18T12:37:29.039Z,63.60
2018-08-18T12:40:05.820Z,63.50
2018-08-18T12:42:33.916Z,62.70
2018-08-18T12:45:07.284Z,62.30
2018-08-18T12:47:42.047Z,62.10
2018-08-18T12:50:10.699Z,62.30
2018-08-18T12:52:47.652Z,62.40
2018-08-18T12:55:20.243Z,62.00
2018-08-18T12:57:51.227Z,62.20
2018-08-18T13:00:22.050Z,62.40
2018-08-18T13:02:53.217Z,61.90
2018-08-18T13:05:24.378Z,62.90
2018-08-18T13:07:59.459Z,62.10
2018-08-18T13:10:30.914Z,62.30
2018-08-18T13:13:05.397Z,62.30
2018-08-18T13:15:37.723Z,62.70
2018-08-18T13:18:08.557Z,62.50
2018-08-18T13:20:36.966Z,62.20
2018-08-18T13:23:05.317Z,61.80
2018-08-18T13:25:40.796Z,61.70
2018-08-18T13:28:18.961Z,61.70
2018-08-18T13:30:50.180Z,62.10
2018-08-18T13:33:18.417Z,61.50
2018-08-18T13:35:54.796Z,61.70
2018-08-18T13:38:29.915Z,61.90
2018-08-18T13:41:05.248Z,61.70
2018-08-18T13:43:44.445Z,61.70
2018-08-18T13:46:16.507Z,61.40
2018-08-18T13:48:56.334Z,61.20
2018-08-18T13:51:26.493Z,61.40
2018-08-18T13:53:55.302Z,61.50
2018-08-18T13:56:26.547Z,61.10
2018-08-18T13:58:57.543Z,60.90
2018-08-18T14:01:36.831Z,60.70
2018-08-18T14:04:12.507Z,60.40
2018-08-18T14:06:51.718Z,60.30
2018-08-18T14:09:26.273Z,61.10
2018-08-18T14:12:03.126Z,60.20
2018-08-18T14:14:31.234Z,60.30
2018-08-18T14:17:06.523Z,60.00
2018-08-18T14:19:36.794Z,59.70
2018-08-18T14:22:09.406Z,59.70
2018-08-18T14:24:44.819Z,60.00
2018-08-18T14:27:17.430Z,59.80
2018-08-18T14:29:48.227Z,60.30
2018-08-18T14:32:21.727Z,60.70
2018-08-18T14:35:06.792Z,60.80
2018-08-18T14:37:38.842Z,60.30
2018-08-18T14:40:10.030Z,60.30
2018-08-18T14:42:38.081Z,60.90
2018-08-18T14:45:12.227Z,60.70
2018-08-18T14:47:40.467Z,60.30
2018-08-18T14:50:17.592Z,60.00
2018-08-18T14:52:51.832Z,59.60
2018-08-18T14:55:31.899Z,59.80
2018-08-18T14:58:04.138Z,60.20
2018-08-18T15:00:32.401Z,60.40
2018-08-18T15:03:03.394Z,60.20
2018-08-18T15:05:31.883Z,60.00
2018-08-18T15:08:03.013Z,61.00
2018-08-18T15:10:39.687Z,60.80
2018-08-18T15:13:08.950Z,60.80
2018-08-18T15:15:37.401Z,60.30
2018-08-18T15:18:08.338Z,60.20
2018-08-18T15:20:39.485Z,60.00
2018-08-18T15:23:08.866Z,60.70
2018-08-18T15:25:40.911Z,60.90
2018-08-18T15:28:15.433Z,60.60
2018-08-18T15:30:49.874Z,61.00
2018-08-18T15:33:20.045Z,62.00
2018-08-18T15:35:50.517Z,62.10
2018-08-18T15:38:35.855Z,62.70
2018-08-18T15:41:06.342Z,62.90
2018-08-18T15:43:34.573Z,63.20
2018-08-18T15:46:03.947Z,63.10
2018-08-18T15:48:37.857Z,62.90
2018-08-18T15:51:17.760Z,63.50
2018-08-18T15:54:02.613Z,64.30
2018-08-18T15:56:41.159Z,63.60
2018-08-18T15:59:12.397Z,63.50
2018-08-18T16:01:42.408Z,63.80
2018-08-18T16:04:15.693Z,63.70
2018-08-18T16:06:49.849Z,63.90
2018-08-18T16:09:21.305Z,64.30
2018-08-18T16:11:52.287Z,64.00
2018-08-18T16:14:30.087Z,64.00
2018-08-18T16:17:11.134Z,64.40
2018-08-18T16:19:39.444Z,64.30
2018-08-18T16:22:10.819Z,64.30
2018-08-18T16:24:47.465Z,64.80
2018-08-18T16:27:21.571Z,64.50
2018-08-18T16:29:53.798Z,65.10
2018-08-18T16:32:27.031Z,65.20
2018-08-18T16:35:03.826Z,65.40
2018-08-18T16:37:41.787Z,65.40
2018-08-18T16:40:10.093Z,65.70
2018-08-18T16:42:41.075Z,66.10
2018-08-18T16:45:19.515Z,65.90
2018-08-18T16:47:57.960Z,65.80
2018-08-18T16:50:28.266Z,65.90
2018-08-18T16:52:58.802Z,66.00
2018-08-18T16:55:34.458Z,65.90
2018-08-18T16:58:09.863Z,66.20
2018-08-18T17:01:12.177Z,66.70
2018-08-18T17:03:46.375Z,66.90
2018-08-18T17:06:17.735Z,67.00
2018-08-18T17:08:47.934Z,67.00
2018-08-18T17:11:16.087Z,67.50
2018-08-18T17:13:49.055Z,67.20
2018-08-18T17:16:17.247Z,67.20
2018-08-18T17:18:48.440Z,67.10
2018-08-18T17:21:18.904Z,67.40
2018-08-18T17:23:51.990Z,67.50
2018-08-18T17:26:20.061Z,68.00
2018-08-18T17:28:53.234Z,69.20
2018-08-18T17:31:24.283Z,68.60
2018-08-18T17:33:52.327Z,69.10
2018-08-18T17:36:25.670Z,69.30
2018-08-18T17:38:56.668Z,69.30
2018-08-18T17:41:24.835Z,69.80
2018-08-18T17:44:04.672Z,69.70
2018-08-18T17:46:33.062Z,70.20
2018-08-18T17:49:01.542Z,70.40
2018-08-18T17:51:29.655Z,70.50
2018-08-18T17:54:11.647Z,71.10
2018-08-18T17:56:47.023Z,71.90
2018-08-18T17:59:15.392Z,71.60
2018-08-18T18:01:57.997Z,71.90
2018-08-18T18:04:29.433Z,72.00
2018-08-18T18:07:01.931Z,72.50
2018-08-18T18:09:37.689Z,72.40
2018-08-18T18:12:27.022Z,72.60
2018-08-18T18:15:02.381Z,73.00
2018-08-18T18:17:33.290Z,72.60
2018-08-18T18:20:01.546Z,73.70
2018-08-18T18:22:38.376Z,73.70
2018-08-18T18:25:06.906Z,73.90
2018-08-18T18:27:35.081Z,74.20
2018-08-18T18:30:08.946Z,74.60
2018-08-18T18:32:39.432Z,74.70
2018-08-18T18:35:10.452Z,75.30
2018-08-18T18:37:41.458Z,75.50
2018-08-18T18:40:17.486Z,76.00
2018-08-18T18:42:45.563Z,76.00
2018-08-18T18:45:16.015Z,77.20
2018-08-18T18:47:47.191Z,76.60
2018-08-18T18:50:27.688Z,76.90
2018-08-18T18:52:55.854Z,77.30
2018-08-18T18:55:24.159Z,77.70
2018-08-18T18:58:04.377Z,77.80
2018-08-18T19:00:34.237Z,78.10
2018-08-18T19:03:02.555Z,78.60
2018-08-18T19:05:35.675Z,78.90
2018-08-18T19:08:15.215Z,79.10
2018-08-18T19:10:46.250Z,79.50
2018-08-18T19:13:14.513Z,79.90
2018-08-18T19:15:42.648Z,80.40
2018-08-18T19:18:11.626Z,80.80
2018-08-18T19:20:39.716Z,81.50
2018-08-18T19:23:16.132Z,82.10
2018-08-18T19:25:50.432Z,82.80
2018-08-18T19:28:25.154Z,83.50
2018-08-18T19:30:56.055Z,84.30
2018-08-18T19:33:28.498Z,84.40
2018-08-18T19:35:58.651Z,86.10
2018-08-18T19:38:26.758Z,87.20
2018-08-18T19:40:59.532Z,88.10
2018-08-18T19:43:31.852Z,88.80
2018-08-18T19:46:06.260Z,89.70
2018-08-18T19:48:37.400Z,90.20
2018-08-18T19:51:07.401Z,90.80
2018-08-18T19:53:40.635Z,91.30
2018-08-18T19:56:11.406Z,91.80
2018-08-18T19:58:39.519Z,92.20
2018-08-18T20:01:11.771Z,92.70
2018-08-18T20:03:41.931Z,93.20
2018-08-18T20:06:15.223Z,93.70
2018-08-18T20:08:47.698Z,94.20
2018-08-18T20:11:20.428Z,94.60
2018-08-18T20:13:48.587Z,95.10
2018-08-18T20:16:26.001Z,95.50
2018-08-18T20:19:00.576Z,96.00
2018-08-18T20:21:28.861Z,96.50
2018-08-18T20:24:03.350Z,96.90
2018-08-18T20:26:34.320Z,97.30
2018-08-18T20:29:02.541Z,97.90
2018-08-18T20:31:30.721Z,98.40
2018-08-18T20:34:13.470Z,99.10
2018-08-18T20:36:43.694Z,99.90
2018-08-18T20:39:17.597Z,99.90
2018-08-18T20:41:46.148Z,99.90
2018-08-18T20:44:14.390Z,99.90
2018-08-18T20:46:42.471Z,99.90
2018-08-18T20:49:17.733Z,99.90
2018-08-18T20:51:55.379Z,99.90
2018-08-18T20:54:28.746Z,99.90
2018-08-18T20:57:02.184Z,99.90
2018-08-18T20:59:33.036Z,99.90
2018-08-18T21:02:01.072Z,99.90
2018-08-18T21:04:34.695Z,99.90
2018-08-18T21:07:07.592Z,99.90
2018-08-18T21:09:35.682Z,99.90
2018-08-18T21:12:06.504Z,99.90
2018-08-18T21:14:34.558Z,99.90
2018-08-18T21:17:05.671Z,99.90
2018-08-18T21:19:38.367Z,99.90
2018-08-18T21:22:07.199Z,99.90
2018-08-18T21:24:43.648Z,99.90
2018-08-18T21:27:18.396Z,99.90
2018-08-18T21:29:46.419Z,99.90
2018-08-18T21:32:17.284Z,99.90
2018-08-18T21:34:49.784Z,99.90
2018-08-18T21:37:17.816Z,99.90
2018-08-18T21:39:51.322Z,99.90
2018-08-18T21:42:22.163Z,99.90
2018-08-18T21:44:55.717Z,99.90
2018-08-18T21:47:23.926Z,99.90
2018-08-18T21:49:55.348Z,99.90
2018-08-18T21:52:29.972Z,99.90
2018-08-18T21:55:02.913Z,99.90
2018-08-18T21:57:37.931Z,99.90
2018-08-18T22:00:06.898Z,99.90
2018-08-18T22:02:41.166Z,99.90
2018-08-18T22:05:13.971Z,99.90
2018-08-18T22:07:50.738Z,99.90
2018-08-18T22:10:18.947Z,99.90
2018-08-18T22:12:53.584Z,99.90
2018-08-18T22:15:22.181Z,99.90
2018-08-18T22:18:03.359Z,99.90
2018-08-18T22:20:33.679Z,99.90
2018-08-18T22:23:01.959Z,99.90
2018-08-18T22:25:34.191Z,99.90
2018-08-18T22:28:02.690Z,99.90
2018-08-18T22:30:31.253Z,99.90
2018-08-18T22:33:02.447Z,99.90
2018-08-18T22:35:30.611Z,99.90
2018-08-18T22:38:05.907Z,99.90
2018-08-18T22:40:34.836Z,99.90
2018-08-18T22:43:02.898Z,99.90
2018-08-18T22:45:36.102Z,99.90
2018-08-18T22:48:08.548Z,99.90
2018-08-18T22:50:38.887Z,99.90
2018-08-18T22:53:07.020Z,99.90
2018-08-18T22:55:41.612Z,99.90
2018-08-18T22:58:09.843Z,99.90
2018-08-18T23:00:44.282Z,99.90
2018-08-18T23:03:15.715Z,99.90
2018-08-18T23:05:50.041Z,99.90
2018-08-18T23:08:19.291Z,99.90
2018-08-18T23:10:49.706Z,99.90
2018-08-18T23:13:17.784Z,99.90
2018-08-18T23:15:50.795Z,99.90
2018-08-18T23:18:21.287Z,99.90
2018-08-18T23:20:51.383Z,99.90
2018-08-18T23:23:19.509Z,99.90
2018-08-18T23:25:49.865Z,99.90
2018-08-18T23:28:20.032Z,99.90
2018-08-18T23:30:48.057Z,99.90
2018-08-18T23:33:20.952Z,99.90
2018-08-18T23:35:48.983Z,99.90
2018-08-18T23:38:19.959Z,99.90
2018-08-18T23:41:00.215Z,99.90
2018-08-18T23:43:28.265Z,99.90
2018-08-18T23:46:00.490Z,99.90
2018-08-18T23:48:28.808Z,99.90
2018-08-18T23:50:56.939Z,99.90
2018-08-18T23:53:34.384Z,99.90
2018-08-18T23:56:08.776Z,99.90
2018-08-18T23:58:45.497Z,99.90
